sensor_id;sensor_type;location;lat;lon;timestamp;P1;durP1;ratioP1;P2;durP2;ratioP2
18102;SDS011;9178;51.120;6.192;2022-12-07T00:01:29;22.17;;;15.03;;
18102;SDS011;9178;51.120;6.192;2022-12-07T00:03:58;29.90;;;16.10;;
18102;SDS011;9178;51.120;6.192;2022-12-07T00:06:30;26.10;;;15.47;;
18102;SDS011;9178;51.120;6.192;2022-12-07T00:08:57;33.00;;;16.40;;
18102;SDS011;9178;51.120;6.192;2022-12-07T00:11:24;28.80;;;16.40;;
18102;SDS011;9178;51.120;6.192;2022-12-07T00:13:53;31.23;;;16.10;;
18102;SDS011;9178;51.120;6.192;2022-12-07T00:16:23;27.13;;;15.70;;
18102;SDS011;9178;51.120;6.192;2022-12-07T00:18:51;30.77;;;16.60;;
18102;SDS011;9178;51.120;6.192;2022-12-07T00:21:19;30.87;;;15.97;;
18102;SDS011;9178;51.120;6.192;2022-12-07T00:23:47;30.47;;;15.97;;
18102;SDS011;9178;51.120;6.192;2022-12-07T00:26:16;27.43;;;15.87;;
18102;SDS011;9178;51.120;6.192;2022-12-07T00:28:46;26.80;;;16.00;;
18102;SDS011;9178;51.120;6.192;2022-12-07T00:31:16;32.40;;;15.20;;
18102;SDS011;9178;51.120;6.192;2022-12-07T00:33:44;32.17;;;16.63;;
18102;SDS011;9178;51.120;6.192;2022-12-07T00:36:13;32.53;;;15.83;;
18102;SDS011;9178;51.120;6.192;2022-12-07T00:38:41;21.87;;;15.73;;
18102;SDS011;9178;51.120;6.192;2022-12-07T00:41:10;28.57;;;15.60;;
18102;SDS011;9178;51.120;6.192;2022-12-07T00:43:39;25.50;;;15.60;;
18102;SDS011;9178;51.120;6.192;2022-12-07T00:46:06;27.73;;;16.93;;
18102;SDS011;9178;51.120;6.192;2022-12-07T00:48:34;32.57;;;17.30;;
18102;SDS011;9178;51.120;6.192;2022-12-07T00:51:02;36.40;;;18.00;;
18102;SDS011;9178;51.120;6.192;2022-12-07T00:53:29;35.27;;;17.80;;
18102;SDS011;9178;51.120;6.192;2022-12-07T00:55:56;34.07;;;17.50;;
18102;SDS011;9178;51.120;6.192;2022-12-07T00:58:23;32.90;;;17.27;;
18102;SDS011;9178;51.120;6.192;2022-12-07T01:00:50;34.43;;;18.37;;
18102;SDS011;9178;51.120;6.192;2022-12-07T01:03:17;32.57;;;18.00;;
18102;SDS011;9178;51.120;6.192;2022-12-07T01:05:52;32.13;;;17.97;;
18102;SDS011;9178;51.120;6.192;2022-12-07T01:08:20;32.43;;;17.93;;
18102;SDS011;9178;51.120;6.192;2022-12-07T01:10:47;30.73;;;18.33;;
18102;SDS011;9178;51.120;6.192;2022-12-07T01:13:15;34.83;;;20.40;;
18102;SDS011;9178;51.120;6.192;2022-12-07T01:15:42;34.30;;;18.07;;
18102;SDS011;9178;51.120;6.192;2022-12-07T01:18:10;32.50;;;18.30;;
18102;SDS011;9178;51.120;6.192;2022-12-07T01:20:37;32.40;;;18.63;;
18102;SDS011;9178;51.120;6.192;2022-12-07T01:23:05;34.67;;;18.43;;
18102;SDS011;9178;51.120;6.192;2022-12-07T01:25:32;29.17;;;18.57;;
18102;SDS011;9178;51.120;6.192;2022-12-07T01:27:59;32.03;;;18.97;;
18102;SDS011;9178;51.120;6.192;2022-12-07T01:30:26;32.80;;;18.57;;
18102;SDS011;9178;51.120;6.192;2022-12-07T01:32:53;31.87;;;18.57;;
18102;SDS011;9178;51.120;6.192;2022-12-07T01:35:21;32.47;;;18.50;;
18102;SDS011;9178;51.120;6.192;2022-12-07T01:37:48;30.30;;;18.83;;
18102;SDS011;9178;51.120;6.192;2022-12-07T01:40:16;34.97;;;19.73;;
18102;SDS011;9178;51.120;6.192;2022-12-07T01:42:43;37.90;;;20.40;;
18102;SDS011;9178;51.120;6.192;2022-12-07T01:48:05;35.57;;;20.50;;
18102;SDS011;9178;51.120;6.192;2022-12-07T01:50:33;32.77;;;20.33;;
18102;SDS011;9178;51.120;6.192;2022-12-07T01:53:01;38.87;;;20.67;;
18102;SDS011;9178;51.120;6.192;2022-12-07T01:55:32;33.33;;;20.30;;
18102;SDS011;9178;51.120;6.192;2022-12-07T01:58:00;37.27;;;20.17;;
18102;SDS011;9178;51.120;6.192;2022-12-07T02:00:27;36.63;;;20.33;;
18102;SDS011;9178;51.120;6.192;2022-12-07T02:02:55;39.30;;;20.87;;
18102;SDS011;9178;51.120;6.192;2022-12-07T02:05:26;35.73;;;20.90;;
18102;SDS011;9178;51.120;6.192;2022-12-07T02:07:54;34.13;;;20.93;;
18102;SDS011;9178;51.120;6.192;2022-12-07T02:10:23;36.57;;;21.03;;
18102;SDS011;9178;51.120;6.192;2022-12-07T02:12:54;42.97;;;22.83;;
18102;SDS011;9178;51.120;6.192;2022-12-07T02:15:25;38.20;;;23.10;;
18102;SDS011;9178;51.120;6.192;2022-12-07T02:17:57;43.07;;;23.13;;
18102;SDS011;9178;51.120;6.192;2022-12-07T02:20:33;37.67;;;22.13;;
18102;SDS011;9178;51.120;6.192;2022-12-07T02:23:13;38.77;;;23.57;;
18102;SDS011;9178;51.120;6.192;2022-12-07T02:29:09;41.90;;;24.83;;
18102;SDS011;9178;51.120;6.192;2022-12-07T02:31:40;46.17;;;25.00;;
18102;SDS011;9178;51.120;6.192;2022-12-07T02:34:12;44.43;;;25.27;;
18102;SDS011;9178;51.120;6.192;2022-12-07T02:36:45;40.97;;;25.20;;
18102;SDS011;9178;51.120;6.192;2022-12-07T02:39:17;42.30;;;25.33;;
18102;SDS011;9178;51.120;6.192;2022-12-07T02:41:50;41.07;;;25.17;;
18102;SDS011;9178;51.120;6.192;2022-12-07T02:44:22;42.83;;;24.30;;
18102;SDS011;9178;51.120;6.192;2022-12-07T02:46:52;45.87;;;26.43;;
18102;SDS011;9178;51.120;6.192;2022-12-07T02:49:22;42.63;;;25.93;;
18102;SDS011;9178;51.120;6.192;2022-12-07T02:51:51;47.40;;;25.57;;
18102;SDS011;9178;51.120;6.192;2022-12-07T02:54:19;44.30;;;25.43;;
18102;SDS011;9178;51.120;6.192;2022-12-07T02:56:48;44.80;;;26.23;;
18102;SDS011;9178;51.120;6.192;2022-12-07T02:59:24;48.10;;;26.23;;
18102;SDS011;9178;51.120;6.192;2022-12-07T03:02:01;47.97;;;26.20;;
18102;SDS011;9178;51.120;6.192;2022-12-07T03:04:41;37.03;;;23.73;;
18102;SDS011;9178;51.120;6.192;2022-12-07T03:07:15;46.53;;;26.27;;
18102;SDS011;9178;51.120;6.192;2022-12-07T03:09:48;47.17;;;26.17;;
18102;SDS011;9178;51.120;6.192;2022-12-07T03:12:20;40.73;;;25.47;;
18102;SDS011;9178;51.120;6.192;2022-12-07T03:14:57;42.87;;;26.20;;
18102;SDS011;9178;51.120;6.192;2022-12-07T03:17:31;43.03;;;25.47;;
18102;SDS011;9178;51.120;6.192;2022-12-07T03:20:04;36.60;;;24.27;;
18102;SDS011;9178;51.120;6.192;2022-12-07T03:22:34;45.80;;;25.93;;
18102;SDS011;9178;51.120;6.192;2022-12-07T03:25:04;41.33;;;25.63;;
18102;SDS011;9178;51.120;6.192;2022-12-07T03:27:35;42.03;;;24.53;;
18102;SDS011;9178;51.120;6.192;2022-12-07T03:30:07;38.93;;;24.17;;
18102;SDS011;9178;51.120;6.192;2022-12-07T03:32:37;37.23;;;23.50;;
18102;SDS011;9178;51.120;6.192;2022-12-07T03:35:09;46.97;;;24.57;;
18102;SDS011;9178;51.120;6.192;2022-12-07T03:37:42;39.90;;;23.10;;
18102;SDS011;9178;51.120;6.192;2022-12-07T03:40:15;49.60;;;25.17;;
18102;SDS011;9178;51.120;6.192;2022-12-07T03:42:49;42.50;;;23.03;;
18102;SDS011;9178;51.120;6.192;2022-12-07T03:45:18;36.73;;;22.80;;
18102;SDS011;9178;51.120;6.192;2022-12-07T03:47:53;38.33;;;22.43;;
18102;SDS011;9178;51.120;6.192;2022-12-07T03:50:35;44.43;;;23.63;;
18102;SDS011;9178;51.120;6.192;2022-12-07T03:53:08;45.73;;;23.63;;
18102;SDS011;9178;51.120;6.192;2022-12-07T03:55:40;46.03;;;24.30;;
18102;SDS011;9178;51.120;6.192;2022-12-07T03:58:10;55.30;;;25.10;;
18102;SDS011;9178;51.120;6.192;2022-12-07T04:00:44;47.53;;;24.47;;
18102;SDS011;9178;51.120;6.192;2022-12-07T04:03:11;63.03;;;26.50;;
18102;SDS011;9178;51.120;6.192;2022-12-07T04:05:38;38.43;;;22.73;;
18102;SDS011;9178;51.120;6.192;2022-12-07T04:08:05;43.10;;;23.03;;
18102;SDS011;9178;51.120;6.192;2022-12-07T04:10:32;41.10;;;22.17;;
18102;SDS011;9178;51.120;6.192;2022-12-07T04:12:59;76.57;;;27.73;;
18102;SDS011;9178;51.120;6.192;2022-12-07T04:15:26;56.33;;;25.60;;
18102;SDS011;9178;51.120;6.192;2022-12-07T04:17:54;78.70;;;29.13;;
18102;SDS011;9178;51.120;6.192;2022-12-07T04:20:21;87.97;;;28.20;;
18102;SDS011;9178;51.120;6.192;2022-12-07T04:22:49;147.17;;;32.50;;
18102;SDS011;9178;51.120;6.192;2022-12-07T04:25:15;122.43;;;33.87;;
18102;SDS011;9178;51.120;6.192;2022-12-07T04:27:42;78.60;;;27.80;;
18102;SDS011;9178;51.120;6.192;2022-12-07T04:30:09;40.07;;;22.40;;
18102;SDS011;9178;51.120;6.192;2022-12-07T04:32:36;97.77;;;28.70;;
18102;SDS011;9178;51.120;6.192;2022-12-07T04:35:05;81.97;;;27.80;;
18102;SDS011;9178;51.120;6.192;2022-12-07T04:37:32;83.10;;;28.20;;
18102;SDS011;9178;51.120;6.192;2022-12-07T04:39:59;106.17;;;31.03;;
18102;SDS011;9178;51.120;6.192;2022-12-07T04:42:26;79.30;;;26.90;;
18102;SDS011;9178;51.120;6.192;2022-12-07T04:44:53;96.77;;;31.83;;
18102;SDS011;9178;51.120;6.192;2022-12-07T04:47:20;71.90;;;27.90;;
18102;SDS011;9178;51.120;6.192;2022-12-07T04:49:47;49.70;;;23.20;;
18102;SDS011;9178;51.120;6.192;2022-12-07T04:52:15;45.03;;;22.17;;
18102;SDS011;9178;51.120;6.192;2022-12-07T04:54:42;96.13;;;30.33;;
18102;SDS011;9178;51.120;6.192;2022-12-07T04:57:08;123.30;;;32.73;;
18102;SDS011;9178;51.120;6.192;2022-12-07T04:59:35;92.73;;;31.63;;
18102;SDS011;9178;51.120;6.192;2022-12-07T05:02:02;105.50;;;31.10;;
18102;SDS011;9178;51.120;6.192;2022-12-07T05:04:29;44.63;;;23.80;;
18102;SDS011;9178;51.120;6.192;2022-12-07T05:06:56;40.37;;;23.40;;
18102;SDS011;9178;51.120;6.192;2022-12-07T05:09:24;98.93;;;31.90;;
18102;SDS011;9178;51.120;6.192;2022-12-07T05:11:51;58.70;;;26.33;;
18102;SDS011;9178;51.120;6.192;2022-12-07T05:14:18;82.27;;;29.17;;
18102;SDS011;9178;51.120;6.192;2022-12-07T05:16:47;97.70;;;30.80;;
18102;SDS011;9178;51.120;6.192;2022-12-07T05:19:15;89.63;;;29.37;;
18102;SDS011;9178;51.120;6.192;2022-12-07T05:21:42;62.17;;;26.13;;
18102;SDS011;9178;51.120;6.192;2022-12-07T05:24:10;87.53;;;29.00;;
18102;SDS011;9178;51.120;6.192;2022-12-07T05:26:40;48.10;;;23.40;;
18102;SDS011;9178;51.120;6.192;2022-12-07T05:29:09;53.70;;;24.83;;
18102;SDS011;9178;51.120;6.192;2022-12-07T05:31:37;84.13;;;29.00;;
18102;SDS011;9178;51.120;6.192;2022-12-07T05:34:04;54.40;;;25.30;;
18102;SDS011;9178;51.120;6.192;2022-12-07T05:36:31;50.77;;;23.57;;
18102;SDS011;9178;51.120;6.192;2022-12-07T05:38:58;64.07;;;26.73;;
18102;SDS011;9178;51.120;6.192;2022-12-07T05:41:24;66.87;;;27.80;;
18102;SDS011;9178;51.120;6.192;2022-12-07T05:44:10;43.10;;;22.30;;
18102;SDS011;9178;51.120;6.192;2022-12-07T05:46:40;66.50;;;27.63;;
18102;SDS011;9178;51.120;6.192;2022-12-07T05:49:07;71.00;;;27.20;;
18102;SDS011;9178;51.120;6.192;2022-12-07T05:51:34;64.70;;;26.67;;
18102;SDS011;9178;51.120;6.192;2022-12-07T05:54:00;63.40;;;25.37;;
18102;SDS011;9178;51.120;6.192;2022-12-07T05:56:27;56.77;;;24.77;;
18102;SDS011;9178;51.120;6.192;2022-12-07T05:58:54;76.27;;;28.43;;
18102;SDS011;9178;51.120;6.192;2022-12-07T06:01:40;65.90;;;25.77;;
18102;SDS011;9178;51.120;6.192;2022-12-07T06:04:07;53.00;;;23.07;;
18102;SDS011;9178;51.120;6.192;2022-12-07T06:06:34;77.73;;;27.87;;
18102;SDS011;9178;51.120;6.192;2022-12-07T06:09:01;47.60;;;22.57;;
18102;SDS011;9178;51.120;6.192;2022-12-07T06:11:28;92.00;;;28.50;;
18102;SDS011;9178;51.120;6.192;2022-12-07T06:14:13;59.97;;;24.33;;
18102;SDS011;9178;51.120;6.192;2022-12-07T06:16:41;80.80;;;25.97;;
18102;SDS011;9178;51.120;6.192;2022-12-07T06:19:08;43.17;;;21.80;;
18102;SDS011;9178;51.120;6.192;2022-12-07T06:21:35;57.43;;;23.93;;
18102;SDS011;9178;51.120;6.192;2022-12-07T06:24:02;61.07;;;25.17;;
18102;SDS011;9178;51.120;6.192;2022-12-07T06:26:29;61.40;;;24.33;;
18102;SDS011;9178;51.120;6.192;2022-12-07T06:28:56;64.17;;;24.17;;
18102;SDS011;9178;51.120;6.192;2022-12-07T06:31:23;77.43;;;27.20;;
18102;SDS011;9178;51.120;6.192;2022-12-07T06:33:51;101.50;;;29.80;;
18102;SDS011;9178;51.120;6.192;2022-12-07T06:36:22;69.37;;;24.73;;
18102;SDS011;9178;51.120;6.192;2022-12-07T06:38:49;106.20;;;30.00;;
18102;SDS011;9178;51.120;6.192;2022-12-07T06:41:16;186.37;;;37.37;;
18102;SDS011;9178;51.120;6.192;2022-12-07T06:43:43;78.90;;;26.73;;
18102;SDS011;9178;51.120;6.192;2022-12-07T06:46:10;66.33;;;25.47;;
18102;SDS011;9178;51.120;6.192;2022-12-07T06:48:36;117.33;;;27.27;;
18102;SDS011;9178;51.120;6.192;2022-12-07T06:51:05;56.73;;;22.67;;
18102;SDS011;9178;51.120;6.192;2022-12-07T06:53:32;84.70;;;23.87;;
18102;SDS011;9178;51.120;6.192;2022-12-07T06:55:58;223.90;;;35.83;;
18102;SDS011;9178;51.120;6.192;2022-12-07T06:58:25;38.37;;;19.43;;
18102;SDS011;9178;51.120;6.192;2022-12-07T07:00:53;255.07;;;35.10;;
18102;SDS011;9178;51.120;6.192;2022-12-07T07:03:20;193.37;;;29.83;;
18102;SDS011;9178;51.120;6.192;2022-12-07T07:05:47;267.27;;;38.50;;
18102;SDS011;9178;51.120;6.192;2022-12-07T07:08:15;261.97;;;39.17;;
18102;SDS011;9178;51.120;6.192;2022-12-07T07:10:41;135.97;;;26.10;;
18102;SDS011;9178;51.120;6.192;2022-12-07T07:13:08;460.93;;;51.43;;
18102;SDS011;9178;51.120;6.192;2022-12-07T07:15:37;306.40;;;39.33;;
18102;SDS011;9178;51.120;6.192;2022-12-07T07:18:04;377.23;;;43.37;;
18102;SDS011;9178;51.120;6.192;2022-12-07T07:20:31;211.20;;;35.47;;
18102;SDS011;9178;51.120;6.192;2022-12-07T07:22:58;207.30;;;35.63;;
18102;SDS011;9178;51.120;6.192;2022-12-07T07:25:26;299.33;;;43.33;;
18102;SDS011;9178;51.120;6.192;2022-12-07T07:27:53;128.13;;;30.23;;
18102;SDS011;9178;51.120;6.192;2022-12-07T07:30:20;117.50;;;29.63;;
18102;SDS011;9178;51.120;6.192;2022-12-07T07:32:47;107.70;;;29.87;;
18102;SDS011;9178;51.120;6.192;2022-12-07T07:35:15;110.20;;;30.17;;
18102;SDS011;9178;51.120;6.192;2022-12-07T07:37:42;112.27;;;29.60;;
18102;SDS011;9178;51.120;6.192;2022-12-07T07:40:09;112.10;;;30.93;;
18102;SDS011;9178;51.120;6.192;2022-12-07T07:42:38;62.70;;;24.63;;
18102;SDS011;9178;51.120;6.192;2022-12-07T07:45:12;90.17;;;30.53;;
18102;SDS011;9178;51.120;6.192;2022-12-07T07:47:40;99.00;;;29.73;;
18102;SDS011;9178;51.120;6.192;2022-12-07T07:50:07;138.30;;;33.97;;
18102;SDS011;9178;51.120;6.192;2022-12-07T07:52:37;75.87;;;23.37;;
18102;SDS011;9178;51.120;6.192;2022-12-07T07:55:04;182.17;;;36.60;;
18102;SDS011;9178;51.120;6.192;2022-12-07T07:57:33;237.93;;;40.20;;
18102;SDS011;9178;51.120;6.192;2022-12-07T08:00:02;84.40;;;24.87;;
18102;SDS011;9178;51.120;6.192;2022-12-07T08:02:31;348.93;;;44.93;;
18102;SDS011;9178;51.120;6.192;2022-12-07T08:04:58;197.27;;;34.20;;
18102;SDS011;9178;51.120;6.192;2022-12-07T08:07:25;195.27;;;38.30;;
18102;SDS011;9178;51.120;6.192;2022-12-07T08:09:53;186.20;;;33.57;;
18102;SDS011;9178;51.120;6.192;2022-12-07T08:12:20;268.50;;;42.93;;
18102;SDS011;9178;51.120;6.192;2022-12-07T08:14:47;94.97;;;24.53;;
18102;SDS011;9178;51.120;6.192;2022-12-07T08:17:15;344.17;;;46.33;;
18102;SDS011;9178;51.120;6.192;2022-12-07T08:19:42;240.87;;;39.10;;
18102;SDS011;9178;51.120;6.192;2022-12-07T08:22:09;543.30;;;56.20;;
18102;SDS011;9178;51.120;6.192;2022-12-07T08:24:36;80.20;;;24.57;;
18102;SDS011;9178;51.120;6.192;2022-12-07T08:27:03;38.63;;;18.60;;
18102;SDS011;9178;51.120;6.192;2022-12-07T08:29:29;75.50;;;22.07;;
18102;SDS011;9178;51.120;6.192;2022-12-07T08:31:56;126.03;;;29.83;;
18102;SDS011;9178;51.120;6.192;2022-12-07T08:34:27;91.07;;;28.63;;
18102;SDS011;9178;51.120;6.192;2022-12-07T08:36:53;146.47;;;30.40;;
18102;SDS011;9178;51.120;6.192;2022-12-07T08:39:20;235.20;;;40.70;;
18102;SDS011;9178;51.120;6.192;2022-12-07T08:41:47;245.90;;;36.80;;
18102;SDS011;9178;51.120;6.192;2022-12-07T08:44:14;51.57;;;20.77;;
18102;SDS011;9178;51.120;6.192;2022-12-07T08:46:42;280.33;;;36.43;;
18102;SDS011;9178;51.120;6.192;2022-12-07T08:49:13;317.67;;;40.93;;
18102;SDS011;9178;51.120;6.192;2022-12-07T08:51:45;129.00;;;27.03;;
18102;SDS011;9178;51.120;6.192;2022-12-07T08:54:13;140.83;;;32.17;;
18102;SDS011;9178;51.120;6.192;2022-12-07T08:56:42;141.77;;;30.07;;
18102;SDS011;9178;51.120;6.192;2022-12-07T08:59:10;89.30;;;27.93;;
18102;SDS011;9178;51.120;6.192;2022-12-07T09:01:38;76.37;;;27.97;;
18102;SDS011;9178;51.120;6.192;2022-12-07T09:04:05;57.13;;;25.10;;
18102;SDS011;9178;51.120;6.192;2022-12-07T09:06:32;54.13;;;24.40;;
18102;SDS011;9178;51.120;6.192;2022-12-07T09:09:01;77.30;;;28.60;;
18102;SDS011;9178;51.120;6.192;2022-12-07T09:11:29;62.90;;;25.53;;
18102;SDS011;9178;51.120;6.192;2022-12-07T09:13:56;53.87;;;24.03;;
18102;SDS011;9178;51.120;6.192;2022-12-07T09:16:23;49.20;;;23.97;;
18102;SDS011;9178;51.120;6.192;2022-12-07T09:18:49;60.67;;;26.17;;
18102;SDS011;9178;51.120;6.192;2022-12-07T09:21:16;50.30;;;24.53;;
18102;SDS011;9178;51.120;6.192;2022-12-07T09:23:43;38.67;;;22.10;;
18102;SDS011;9178;51.120;6.192;2022-12-07T09:26:13;51.27;;;23.87;;
18102;SDS011;9178;51.120;6.192;2022-12-07T09:28:39;57.37;;;25.80;;
18102;SDS011;9178;51.120;6.192;2022-12-07T09:31:06;41.73;;;21.83;;
18102;SDS011;9178;51.120;6.192;2022-12-07T09:33:34;53.30;;;24.10;;
18102;SDS011;9178;51.120;6.192;2022-12-07T09:36:00;45.30;;;22.97;;
18102;SDS011;9178;51.120;6.192;2022-12-07T09:38:27;39.30;;;21.97;;
18102;SDS011;9178;51.120;6.192;2022-12-07T09:40:56;44.53;;;22.27;;
18102;SDS011;9178;51.120;6.192;2022-12-07T09:43:24;41.37;;;22.13;;
18102;SDS011;9178;51.120;6.192;2022-12-07T09:45:52;43.20;;;22.07;;
18102;SDS011;9178;51.120;6.192;2022-12-07T09:48:29;40.93;;;20.83;;
18102;SDS011;9178;51.120;6.192;2022-12-07T09:50:59;37.73;;;19.67;;
18102;SDS011;9178;51.120;6.192;2022-12-07T09:53:30;33.47;;;19.03;;
18102;SDS011;9178;51.120;6.192;2022-12-07T09:56:02;49.47;;;21.03;;
18102;SDS011;9178;51.120;6.192;2022-12-07T09:58:31;33.83;;;19.53;;
18102;SDS011;9178;51.120;6.192;2022-12-07T10:01:09;39.60;;;20.13;;
18102;SDS011;9178;51.120;6.192;2022-12-07T10:03:41;37.77;;;19.03;;
18102;SDS011;9178;51.120;6.192;2022-12-07T10:06:15;37.67;;;19.77;;
18102;SDS011;9178;51.120;6.192;2022-12-07T10:08:41;36.17;;;19.43;;
18102;SDS011;9178;51.120;6.192;2022-12-07T10:11:09;35.43;;;18.53;;
18102;SDS011;9178;51.120;6.192;2022-12-07T10:13:39;35.47;;;19.13;;
18102;SDS011;9178;51.120;6.192;2022-12-07T10:16:24;36.10;;;18.80;;
18102;SDS011;9178;51.120;6.192;2022-12-07T10:18:58;34.97;;;19.57;;
18102;SDS011;9178;51.120;6.192;2022-12-07T10:21:47;35.10;;;18.10;;
18102;SDS011;9178;51.120;6.192;2022-12-07T10:24:26;29.33;;;17.27;;
18102;SDS011;9178;51.120;6.192;2022-12-07T10:26:53;29.03;;;17.17;;
18102;SDS011;9178;51.120;6.192;2022-12-07T10:29:23;30.17;;;17.13;;
18102;SDS011;9178;51.120;6.192;2022-12-07T10:31:55;27.30;;;17.53;;
18102;SDS011;9178;51.120;6.192;2022-12-07T10:34:24;25.47;;;16.03;;
18102;SDS011;9178;51.120;6.192;2022-12-07T10:36:54;26.57;;;16.03;;
18102;SDS011;9178;51.120;6.192;2022-12-07T10:39:42;24.10;;;14.47;;
18102;SDS011;9178;51.120;6.192;2022-12-07T10:42:17;23.17;;;13.43;;
18102;SDS011;9178;51.120;6.192;2022-12-07T10:44:47;22.13;;;13.30;;
18102;SDS011;9178;51.120;6.192;2022-12-07T10:47:20;19.57;;;12.07;;
18102;SDS011;9178;51.120;6.192;2022-12-07T10:50:08;20.20;;;11.70;;
18102;SDS011;9178;51.120;6.192;2022-12-07T10:52:46;17.40;;;11.80;;
18102;SDS011;9178;51.120;6.192;2022-12-07T10:55:25;18.77;;;11.93;;
18102;SDS011;9178;51.120;6.192;2022-12-07T10:58:16;19.03;;;11.00;;
18102;SDS011;9178;51.120;6.192;2022-12-07T11:00:57;18.57;;;10.70;;
18102;SDS011;9178;51.120;6.192;2022-12-07T11:03:52;15.17;;;10.23;;
18102;SDS011;9178;51.120;6.192;2022-12-07T11:06:30;18.80;;;11.13;;
18102;SDS011;9178;51.120;6.192;2022-12-07T11:09:04;17.50;;;10.33;;
18102;SDS011;9178;51.120;6.192;2022-12-07T11:11:49;14.70;;;9.97;;
18102;SDS011;9178;51.120;6.192;2022-12-07T11:14:23;16.77;;;10.33;;
18102;SDS011;9178;51.120;6.192;2022-12-07T11:16:57;18.93;;;10.83;;
18102;SDS011;9178;51.120;6.192;2022-12-07T11:19:32;17.10;;;10.27;;
18102;SDS011;9178;51.120;6.192;2022-12-07T11:22:16;16.10;;;9.43;;
18102;SDS011;9178;51.120;6.192;2022-12-07T11:24:50;15.43;;;9.83;;
18102;SDS011;9178;51.120;6.192;2022-12-07T11:27:29;15.27;;;9.90;;
18102;SDS011;9178;51.120;6.192;2022-12-07T11:30:08;15.97;;;9.77;;
18102;SDS011;9178;51.120;6.192;2022-12-07T11:32:50;20.17;;;10.80;;
18102;SDS011;9178;51.120;6.192;2022-12-07T11:35:42;19.17;;;10.20;;
18102;SDS011;9178;51.120;6.192;2022-12-07T11:38:17;15.43;;;9.57;;
18102;SDS011;9178;51.120;6.192;2022-12-07T11:40:48;16.67;;;9.20;;
18102;SDS011;9178;51.120;6.192;2022-12-07T11:43:19;13.70;;;8.70;;
18102;SDS011;9178;51.120;6.192;2022-12-07T11:45:53;17.27;;;8.87;;
18102;SDS011;9178;51.120;6.192;2022-12-07T11:48:28;15.60;;;9.30;;
18102;SDS011;9178;51.120;6.192;2022-12-07T11:50:59;14.63;;;8.90;;
18102;SDS011;9178;51.120;6.192;2022-12-07T11:53:30;12.90;;;7.97;;
18102;SDS011;9178;51.120;6.192;2022-12-07T11:56:03;14.50;;;8.00;;
18102;SDS011;9178;51.120;6.192;2022-12-07T11:58:39;14.13;;;8.33;;
18102;SDS011;9178;51.120;6.192;2022-12-07T12:01:15;15.67;;;8.23;;
18102;SDS011;9178;51.120;6.192;2022-12-07T12:03:56;14.37;;;8.47;;
18102;SDS011;9178;51.120;6.192;2022-12-07T12:06:28;13.53;;;8.33;;
18102;SDS011;9178;51.120;6.192;2022-12-07T12:08:57;14.80;;;8.70;;
18102;SDS011;9178;51.120;6.192;2022-12-07T12:11:36;16.67;;;9.30;;
18102;SDS011;9178;51.120;6.192;2022-12-07T12:17:18;14.03;;;7.53;;
18102;SDS011;9178;51.120;6.192;2022-12-07T12:20:05;10.33;;;6.47;;
18102;SDS011;9178;51.120;6.192;2022-12-07T12:22:43;13.23;;;6.23;;
18102;SDS011;9178;51.120;6.192;2022-12-07T12:25:15;10.10;;;5.43;;
18102;SDS011;9178;51.120;6.192;2022-12-07T12:27:48;10.10;;;4.47;;
18102;SDS011;9178;51.120;6.192;2022-12-07T12:30:29;8.50;;;4.40;;
18102;SDS011;9178;51.120;6.192;2022-12-07T12:33:02;8.50;;;4.30;;
18102;SDS011;9178;51.120;6.192;2022-12-07T12:35:33;7.30;;;4.70;;
18102;SDS011;9178;51.120;6.192;2022-12-07T12:40:55;8.83;;;4.17;;
18102;SDS011;9178;51.120;6.192;2022-12-07T12:46:36;10.40;;;3.83;;
18102;SDS011;9178;51.120;6.192;2022-12-07T12:52:01;13.73;;;3.97;;
18102;SDS011;9178;51.120;6.192;2022-12-07T12:55:16;8.53;;;4.40;;
18102;SDS011;9178;51.120;6.192;2022-12-07T13:03:59;7.80;;;4.60;;
18102;SDS011;9178;51.120;6.192;2022-12-07T13:06:33;11.63;;;4.77;;
18102;SDS011;9178;51.120;6.192;2022-12-07T13:09:04;8.60;;;4.07;;
18102;SDS011;9178;51.120;6.192;2022-12-07T13:11:46;6.53;;;3.97;;
18102;SDS011;9178;51.120;6.192;2022-12-07T13:20:42;11.10;;;4.27;;
18102;SDS011;9178;51.120;6.192;2022-12-07T13:23:10;8.07;;;4.27;;
18102;SDS011;9178;51.120;6.192;2022-12-07T13:25:43;7.90;;;3.87;;
18102;SDS011;9178;51.120;6.192;2022-12-07T13:28:15;11.23;;;4.20;;
18102;SDS011;9178;51.120;6.192;2022-12-07T13:30:50;9.03;;;3.80;;
18102;SDS011;9178;51.120;6.192;2022-12-07T13:33:27;9.07;;;4.00;;
18102;SDS011;9178;51.120;6.192;2022-12-07T13:35:55;7.43;;;4.60;;
18102;SDS011;9178;51.120;6.192;2022-12-07T13:38:25;11.83;;;4.67;;
18102;SDS011;9178;51.120;6.192;2022-12-07T13:41:11;9.83;;;4.43;;
18102;SDS011;9178;51.120;6.192;2022-12-07T13:43:43;6.17;;;4.40;;
18102;SDS011;9178;51.120;6.192;2022-12-07T13:46:16;7.60;;;4.03;;
18102;SDS011;9178;51.120;6.192;2022-12-07T13:48:46;8.60;;;4.60;;
18102;SDS011;9178;51.120;6.192;2022-12-07T13:51:19;11.17;;;4.37;;
18102;SDS011;9178;51.120;6.192;2022-12-07T13:53:48;8.07;;;4.33;;
18102;SDS011;9178;51.120;6.192;2022-12-07T13:56:17;5.00;;;4.50;;
18102;SDS011;9178;51.120;6.192;2022-12-07T13:58:47;7.97;;;4.67;;
18102;SDS011;9178;51.120;6.192;2022-12-07T14:01:14;14.40;;;4.40;;
18102;SDS011;9178;51.120;6.192;2022-12-07T14:03:41;8.77;;;3.97;;
18102;SDS011;9178;51.120;6.192;2022-12-07T14:09:08;11.73;;;4.27;;
18102;SDS011;9178;51.120;6.192;2022-12-07T14:11:45;10.33;;;3.90;;
18102;SDS011;9178;51.120;6.192;2022-12-07T14:14:16;7.93;;;3.90;;
18102;SDS011;9178;51.120;6.192;2022-12-07T14:16:54;7.80;;;4.10;;
18102;SDS011;9178;51.120;6.192;2022-12-07T14:22:29;8.57;;;4.20;;
18102;SDS011;9178;51.120;6.192;2022-12-07T14:24:59;5.83;;;3.77;;
18102;SDS011;9178;51.120;6.192;2022-12-07T14:27:48;10.40;;;3.90;;
18102;SDS011;9178;51.120;6.192;2022-12-07T14:30:18;9.20;;;4.53;;
18102;SDS011;9178;51.120;6.192;2022-12-07T14:32:45;10.17;;;4.30;;
18102;SDS011;9178;51.120;6.192;2022-12-07T14:35:19;8.70;;;3.80;;
18102;SDS011;9178;51.120;6.192;2022-12-07T14:37:46;14.63;;;4.23;;
18102;SDS011;9178;51.120;6.192;2022-12-07T14:40:15;17.80;;;4.70;;
18102;SDS011;9178;51.120;6.192;2022-12-07T14:42:43;7.50;;;4.60;;
18102;SDS011;9178;51.120;6.192;2022-12-07T14:45:17;10.60;;;4.47;;
18102;SDS011;9178;51.120;6.192;2022-12-07T14:47:45;10.47;;;5.67;;
18102;SDS011;9178;51.120;6.192;2022-12-07T14:50:13;8.87;;;5.20;;
18102;SDS011;9178;51.120;6.192;2022-12-07T14:52:40;12.50;;;5.00;;
18102;SDS011;9178;51.120;6.192;2022-12-07T14:55:13;7.37;;;5.17;;
18102;SDS011;9178;51.120;6.192;2022-12-07T14:57:42;11.87;;;5.50;;
18102;SDS011;9178;51.120;6.192;2022-12-07T15:00:09;9.50;;;5.20;;
18102;SDS011;9178;51.120;6.192;2022-12-07T15:02:41;12.27;;;5.23;;
18102;SDS011;9178;51.120;6.192;2022-12-07T15:05:08;14.70;;;6.33;;
18102;SDS011;9178;51.120;6.192;2022-12-07T15:07:35;7.13;;;5.60;;
18102;SDS011;9178;51.120;6.192;2022-12-07T15:10:02;11.13;;;6.10;;
18102;SDS011;9178;51.120;6.192;2022-12-07T15:12:29;21.37;;;6.93;;
18102;SDS011;9178;51.120;6.192;2022-12-07T15:14:56;11.00;;;6.50;;
18102;SDS011;9178;51.120;6.192;2022-12-07T15:17:23;10.17;;;6.23;;
18102;SDS011;9178;51.120;6.192;2022-12-07T15:19:51;10.60;;;5.97;;
18102;SDS011;9178;51.120;6.192;2022-12-07T15:22:18;9.23;;;5.97;;
18102;SDS011;9178;51.120;6.192;2022-12-07T15:24:44;10.43;;;6.27;;
18102;SDS011;9178;51.120;6.192;2022-12-07T15:27:11;9.80;;;6.27;;
18102;SDS011;9178;51.120;6.192;2022-12-07T15:29:38;12.20;;;7.23;;
18102;SDS011;9178;51.120;6.192;2022-12-07T15:32:05;8.97;;;6.70;;
18102;SDS011;9178;51.120;6.192;2022-12-07T15:34:32;10.77;;;6.40;;